AR93 weather

Ark-Mo Airport
Pollard, Arkansas, United States

Public forecast

Using degrees Fahrenheit for public forecast. Weather courtesy of forecast.io.

METAR (pilot weather report)

Closest report is Poplar Bluff Municipal Airport, 17.4 nm (32.3 km) N. Retrieved 2019/05/24 17:53 UTC (46 minutes ago):

KPOF 241753Z AUTO 21008KT 10SM CLR 31/22 A3011 RMK AO2 SLP190 T03060217 10306 20200 56006

TAF (pilot weather forecast)

Closest forecast is Jonesboro Municipal Airport, 43.1 nm (79.8 km) SSW. Retrieved 2019/05/24 18:48 UTC (0 seconds ago):

TAF KJBR 241746Z 2418/2518 21011G18KT P6SM FEW050 SCT250 FM250200 19004KT P6SM SKC FM251500 23012G18KT P6SM FEW040 SCT250